DW8264 Weather Reports


time (UTC)temp
C
wind
direction
speed
KPH
gust
KPH
rain 1hr
cm
rain 24hr
cm
rain mn
cm
humidity
%
barometer
mb
20190418112413 20 175 4.8 11.3 0.00 0.03 0.03 88 1027.3
20190418111913 20 207 1.6 4.8 0.00 0.03 0.03 88 1027.3
20190418105413 20 183 4.8 11.3 0.00 0.03 0.03 88 1026.9
20190418104913 20 190 3.2 9.7 0.00 0.03 0.03 88 1026.8
20190418104412 20 177 0.0 4.8 0.00 0.03 0.03 88 1026.8
20190418103913 20 181 3.2 9.7 0.00 0.03 0.03 88 1026.8
20190418103413 20 194 4.8 11.3 0.00 0.03 0.03 88 1026.7
20190418102913 20 170 1.6 8.0 0.00 0.03 0.03 88 1026.6
20190418102412 20 199 3.2 19.3 0.00 0.03 0.03 89 1026.5
20190418101912 20 175 6.4 14.5 0.00 0.03 0.03 89 1026.5
20190418101412 20 201 1.6 12.9 0.00 0.03 0.03 89 1026.5
20190418100912 20 182 3.2 9.7 0.00 0.03 0.03 88 1026.4
20190418100412 20 187 3.2 12.9 0.00 0.03 0.03 88 1026.4
20190418095912 20 179 8.0 14.5 0.00 0.03 0.03 88 1026.3
20190418095413 20 182 1.6 4.8 0.00 0.03 0.03 88 1026.3
20190418094913 20 165 3.2 12.9 0.00 0.03 0.03 88 1026.3
20190418094413 20 215 1.6 9.7 0.00 0.03 0.03 88 1026.2
20190418093913 20 194 3.2 11.3 0.00 0.03 0.03 88 1026.1
20190418093413 20 188 1.6 11.3 0.00 0.03 0.03 88 1026.0
20190418092920 20 206 3.2 8.0 0.00 0.03 0.03 88 1025.9
20190418092412 20 187 3.2 9.7 0.00 0.03 0.03 88 1025.9
20190418091914 20 189 1.6 9.7 0.00 0.03 0.03 88 1025.9
20190418091413 20 202 1.6 4.8 0.00 0.03 0.03 87 1025.8
20190418090913 20 176 0.0 8.0 0.00 0.03 0.03 87 1025.7
20190418090413 20 197 1.6 12.9 0.00 0.03 0.03 87 1025.7
20190418085913 20 194 6.4 16.1 0.00 0.03 0.03 87 1025.6
20190418085412 20 188 4.8 16.1 0.00 0.03 0.03 87 1025.5
20190418084913 20 198 3.2 11.3 0.00 0.03 0.03 87 1025.4
20190418084412 20 174 4.8 8.0 0.00 0.03 0.03 86 1025.3
20190418083912 20 196 4.8 9.7 0.00 0.03 0.03 86 1025.2
20190418083412 20 188 3.2 9.7 0.00 0.03 0.03 85 1025.2
20190418082913 20 203 3.2 11.3 0.00 0.03 0.03 83 1025.1
20190418082413 20 192 4.8 11.3 0.00 0.03 0.03 83 1025.0
20190418081913 21 204 1.6 4.8 0.00 0.03 0.03 82 1024.9
20190418081412 21 186 3.2 11.3 0.00 0.03 0.03 79 1024.8
20190418080912 21 95 0.0 1.6 0.00 0.03 0.03 77 1024.5
20190418080412 22 95 0.0 1.6 0.00 0.03 0.03 76 1024.3
20190418075912 22 95 1.6 8.0 0.00 0.03 0.03 76 1024.2
20190418075414 22 83 0.0 3.2 0.00 0.03 0.03 75 1024.2
20190418074913 22 83 0.0 3.2 0.00 0.03 0.03 75 1024.0
20190418074413 22 83 0.0 1.6 0.00 0.03 0.03 75 1023.9
20190418073913 22 83 0.0 0.0 0.00 0.03 0.03 74 1023.9
20190418073412 22 83 0.0 1.6 0.00 0.03 0.03 74 1023.8
20190418072912 22 83 0.0 0.0 0.00 0.03 0.03 73 1023.7
20190418072415 22 83 0.0 1.6 0.00 0.03 0.03 73 1023.6
20190418071912 23 88 0.0 0.0 0.00 0.03 0.03 73 1023.5
20190418071413 23 88 0.0 3.2 0.00 0.03 0.03 72 1023.4
20190418070912 23 87 1.6 8.0 0.00 0.03 0.03 72 1023.4
20190418070412 23 84 1.6 8.0 0.00 0.03 0.03 72 1023.3
20190418065912 23 85 1.6 11.3 0.00 0.03 0.03 72 1023.3
20190418065413 23 80 1.6 4.8 0.00 0.03 0.03 71 1023.2
20190418064912 23 75 1.6 11.3 0.00 0.03 0.03 71 1023.1
20190418064413 23 109 0.0 3.2 0.00 0.03 0.03 71 1023.1
20190418063913 23 81 4.8 12.9 0.00 0.03 0.03 71 1023.0
20190418063412 23 69 0.0 11.3 0.00 0.03 0.03 70 1022.9
20190418062912 23 71 1.6 9.7 0.00 0.03 0.03 70 1022.8
20190418062413 23 85 0.0 11.3 0.00 0.03 0.03 70 1022.8
20190418061912 24 76 4.8 9.7 0.00 0.03 0.03 69 1022.9
20190418061412 24 85 3.2 12.9 0.00 0.03 0.03 69 1022.9
20190418060912 24 84 3.2 12.9 0.00 0.03 0.03 69 1022.9
20190418060412 24 86 4.8 11.3 0.00 0.03 0.03 69 1022.9
20190418055912 24 107 4.8 11.3 0.00 0.03 0.03 69 1022.8
20190418055413 24 86 4.8 11.3 0.00 0.03 0.03 68 1022.7
20190418054913 24 53 4.8 12.9 0.00 0.03 0.03 68 1022.7
20190418054412 24 85 3.2 14.5 0.00 0.03 0.03 68 1022.7
20190418053912 24 81 0.0 9.7 0.00 0.03 0.03 68 1022.7
20190418053412 25 84 1.6 11.3 0.00 0.03 0.03 68 1022.7
20190418052912 25 81 3.2 12.9 0.00 0.03 0.03 67 1022.7
20190418052412 25 60 1.6 14.5 0.00 0.03 0.03 66 1022.7
20190418051912 25 81 4.8 16.1 0.00 0.03 0.03 65 1022.7
20190418051413 25 62 1.6 11.3 0.00 0.03 0.03 64 1022.7
20190418050913 25 64 1.6 8.0 0.00 0.03 0.03 63 1022.7
20190418050412 25 70 4.8 16.1 0.00 0.03 0.03 64 1022.6
20190418045912 25 69 0.0 4.8 0.00 0.03 0.03 62 1022.6
20190418045412 25 29 3.2 9.7 0.00 0.03 0.03 63 1022.5
20190418044912 25 64 1.6 12.9 0.00 0.03 0.03 63 1022.6
20190418044413 25 75 3.2 9.7 0.00 0.03 0.03 63 1022.6
20190418043913 25 70 8.0 16.1 0.00 0.03 0.03 63 1022.7
20190418043412 25 61 4.8 12.9 0.00 0.03 0.03 62 1022.8
20190418042912 25 59 3.2 14.5 0.00 0.03 0.03 61 1022.8
20190418042413 26 53 6.4 16.1 0.00 0.03 0.03 60 1022.9
20190418041912 26 72 1.6 9.7 0.00 0.03 0.03 60 1022.8
20190418041412 26 69 4.8 11.3 0.00 0.03 0.03 59 1022.8
20190418040920 26 70 4.8 12.9 0.00 0.03 0.03 57 1022.9
20190418040413 26 97 4.8 9.7 0.00 0.03 0.03 53 1022.8
20190418035912 27 58 0.0 4.8 0.00 0.03 0.03 51 1022.8
20190418035412 27 83 1.6 9.7 0.00 0.03 0.03 53 1022.8
20190418034916 27 10 3.2 11.3 0.00 0.03 0.03 52 1022.8
20190418034413 27 82 3.2 9.7 0.00 0.03 0.03 51 1022.8
20190418033913 27 287 0.0 4.8 0.00 0.03 0.03 48 1022.8
20190418033413 27 8 0.0 4.8 0.00 0.03 0.03 48 1022.9
20190418032912 27 339 0.0 1.6 0.00 0.03 0.03 48 1022.9
20190418032412 27 338 1.6 8.0 0.00 0.03 0.03 49 1023.0
20190418031912 27 10 1.6 4.8 0.00 0.03 0.03 50 1023.0
20190418031412 27 21 0.0 1.6 0.00 0.03 0.03 51 1023.0
20190418030912 27 212 3.2 4.8 0.00 0.03 0.03 49 1023.1
20190418030413 27 319 0.0 4.8 0.00 0.03 0.03 48 1023.2
20190418025913 27 266 1.6 4.8 0.00 0.03 0.03 48 1023.2
20190418025412 27 354 0.0 4.8 0.00 0.03 0.03 50 1023.3
20190418024912 27 354 3.2 4.8 0.00 0.03 0.03 51 1023.4
20190418024412 27 340 0.0 1.6 0.00 0.03 0.03 51 1023.5
20190418023913 27 347 1.6 4.8 0.00 0.03 0.03 51 1023.5
20190418023413 27 329 3.2 8.0 0.00 0.03 0.03 52 1023.6
20190418022912 26 6 1.6 8.0 0.00 0.03 0.03 54 1023.7
20190418022412 26 7 1.6 4.8 0.00 0.03 0.03 57 1023.8
20190418021912 25 6 3.2 8.0 0.00 0.03 0.03 58 1023.9
20190418021415 25 358 3.2 4.8 0.00 0.03 0.03 62 1024.0
20190418020912 25 255 1.6 8.0 0.00 0.03 0.03 58 1024.1
20190418020412 25 220 1.6 8.0 0.00 0.03 0.03 61 1024.1
20190418015913 25 217 0.0 4.8 0.00 0.03 0.03 62 1024.2
20190418015413 25 235 1.6 4.8 0.00 0.03 0.03 61 1024.3
20190418014913 24 245 1.6 11.3 0.00 0.03 0.03 63 1024.3
20190418014412 24 228 3.2 11.3 0.00 0.03 0.03 63 1024.4
20190418013912 24 242 1.6 8.0 0.00 0.03 0.03 64 1024.4
20190418013412 24 296 1.6 11.3 0.00 0.03 0.03 64 1024.5
20190418012913 24 264 4.8 12.9 0.00 0.03 0.03 64 1024.5
20190418012412 24 258 4.8 11.3 0.00 0.03 0.03 64 1024.5
20190418011912 23 334 1.6 4.8 0.00 0.03 0.03 68 1024.6
20190418011412 23 241 3.2 9.7 0.00 0.03 0.03 67 1024.6
20190418010912 23 226 1.6 8.0 0.00 0.03 0.03 67 1024.8
20190418010412 23 278 3.2 8.0 0.00 0.03 0.03 68 1024.7
20190418005912 23 228 3.2 9.7 0.00 0.03 0.03 68 1024.8
20190418005412 23 203 3.2 8.0 0.00 0.03 0.03 70 1024.8
20190418004913 23 340 1.6 4.8 0.00 0.03 0.03 70 1024.9
20190418004412 23 335 1.6 11.3 0.00 0.03 0.03 71 1025.0
20190418003912 22 268 0.0 4.8 0.00 0.03 0.03 72 1025.0
20190418003412 22 258 0.0 8.0 0.00 0.03 0.03 71 1025.1
20190418002912 22 244 4.8 12.9 0.00 0.03 0.03 71 1025.1
20190418002412 22 239 3.2 14.5 0.00 0.03 0.03 72 1025.0
20190418001912 22 337 1.6 4.8 0.00 0.03 0.03 74 1025.0
20190418001413 22 332 0.0 8.0 0.00 0.03 0.03 75 1025.0
20190418000914 22 230 1.6 9.7 0.00 0.03 0.03 75 1025.0
20190418000416 21 342 1.6 4.8 0.00 0.03 0.03 77 1025.0
20190417235912 21 179 1.6 8.0 0.00 0.03 0.03 76 1025.0
20190417235413 21 246 1.6 8.0 0.00 0.03 0.03 77 1025.0
20190417234912 21 276 1.6 9.7 0.00 0.03 0.03 79 1025.0
20190417234413 21 316 1.6 8.0 0.00 0.03 0.03 80 1025.0
20190417233912 20 247 1.6 9.7 0.00 0.03 0.03 80 1025.1
20190417233412 20 349 1.6 4.8 0.00 0.03 0.03 83 1025.2
20190417232912 20 222 3.2 9.7 0.00 0.03 0.03 84 1025.2
20190417232412 19 214 3.2 4.8 0.00 0.03 0.03 85 1025.2
20190417231913 19 228 1.6 4.8 0.00 0.03 0.03 86 1025.2
20190417231413 18 237 1.6 8.0 0.00 0.03 0.03 86 1025.1
20190417230912 18 230 1.6 11.3 0.00 0.03 0.03 87 1025.1
20190417230413 18 262 4.8 11.3 0.00 0.03 0.03 87 1025.0